createdAt,value
2017-08-04T00:01:24.817Z,25.38
2017-08-04T00:03:56.447Z,25.28
2017-08-04T00:06:27.520Z,25.29
2017-08-04T00:08:59.057Z,25.17
2017-08-04T00:11:30.392Z,25.17
2017-08-04T00:14:01.548Z,25.14
2017-08-04T00:16:33.323Z,25.16
2017-08-04T00:19:04.463Z,25.14
2017-08-04T00:21:35.552Z,25.13
2017-08-04T00:24:08.361Z,25.13
2017-08-04T00:26:39.435Z,25.08
2017-08-04T00:29:10.494Z,25.01
2017-08-04T00:31:43.030Z,25.00
2017-08-04T00:34:14.283Z,24.97
2017-08-04T00:36:45.645Z,24.96
2017-08-04T00:39:16.684Z,24.84
2017-08-04T00:41:47.772Z,24.86
2017-08-04T00:44:18.836Z,24.84
2017-08-04T00:46:49.903Z,24.77
2017-08-04T00:49:20.975Z,24.75
2017-08-04T00:51:52.404Z,24.70
2017-08-04T00:54:43.172Z,24.74
2017-08-04T00:57:14.750Z,24.72
2017-08-04T00:59:45.792Z,24.66
2017-08-04T01:02:18.862Z,24.54
2017-08-04T01:04:50.024Z,24.60
2017-08-04T01:07:21.450Z,24.53
2017-08-04T01:09:52.503Z,24.55
2017-08-04T01:12:23.588Z,24.55
2017-08-04T01:14:54.645Z,24.46
2017-08-04T01:17:25.740Z,24.44
2017-08-04T01:19:57.285Z,24.49
2017-08-04T01:22:28.377Z,24.46
2017-08-04T01:24:59.693Z,24.45
2017-08-04T01:27:30.773Z,24.45
2017-08-04T01:30:01.849Z,24.44
2017-08-04T01:32:33.495Z,24.45
2017-08-04T01:35:04.606Z,24.39
2017-08-04T01:37:35.720Z,24.40
2017-08-04T01:40:08.090Z,24.45
2017-08-04T01:42:39.195Z,24.47
2017-08-04T01:45:10.265Z,24.47
2017-08-04T01:47:41.751Z,24.47
2017-08-04T01:50:12.978Z,24.45
2017-08-04T01:52:44.097Z,24.44
2017-08-04T01:55:15.627Z,24.45
2017-08-04T01:57:46.754Z,24.42
2017-08-04T02:00:19.859Z,24.42
2017-08-04T02:02:51.360Z,24.44
2017-08-04T02:05:23.494Z,24.45
2017-08-04T02:07:54.909Z,24.44
2017-08-04T02:10:26.032Z,24.42
2017-08-04T02:12:57.159Z,24.41
2017-08-04T02:15:28.779Z,24.43
2017-08-04T02:17:59.927Z,24.42
2017-08-04T02:20:31.005Z,24.41
2017-08-04T02:23:02.584Z,24.40
2017-08-04T02:25:33.689Z,24.41
2017-08-04T02:28:06.215Z,24.41
2017-08-04T02:30:37.329Z,24.38
2017-08-04T02:33:08.391Z,24.40
2017-08-04T02:35:39.771Z,24.38
2017-08-04T02:38:11.164Z,24.37
2017-08-04T02:40:42.257Z,24.35
2017-08-04T02:43:13.830Z,24.36
2017-08-04T02:45:44.913Z,24.38
2017-08-04T02:48:16.929Z,24.34
2017-08-04T02:50:48.473Z,24.39
2017-08-04T02:53:19.580Z,24.39
2017-08-04T02:55:50.656Z,24.41
2017-08-04T02:58:22.153Z,24.40
2017-08-04T03:00:53.229Z,24.38
2017-08-04T03:03:24.365Z,24.34
2017-08-04T03:05:55.721Z,24.28
2017-08-04T03:08:26.838Z,24.34
2017-08-04T03:10:57.917Z,24.41
2017-08-04T03:13:29.374Z,24.38
2017-08-04T03:16:00.449Z,24.33
2017-08-04T03:18:31.817Z,24.37
2017-08-04T03:21:02.936Z,24.37
2017-08-04T03:23:34.036Z,24.36
2017-08-04T03:26:06.535Z,24.37
2017-08-04T03:28:37.632Z,24.32
2017-08-04T03:31:08.779Z,24.22
2017-08-04T03:33:40.301Z,24.21
2017-08-04T03:36:11.448Z,24.22
2017-08-04T03:38:42.807Z,24.26
2017-08-04T03:41:13.891Z,24.27
2017-08-04T03:43:44.985Z,24.29
2017-08-04T03:46:16.376Z,24.30
2017-08-04T03:48:47.516Z,24.16
2017-08-04T03:51:25.061Z,24.21
2017-08-04T03:53:56.153Z,24.24
2017-08-04T03:56:27.494Z,24.26
2017-08-04T04:01:54.228Z,24.15
2017-08-04T04:04:25.354Z,24.12
2017-08-04T04:06:56.950Z,24.12
2017-08-04T04:09:28.048Z,24.12
2017-08-04T04:11:59.295Z,24.14
2017-08-04T04:14:30.743Z,24.12
2017-08-04T04:17:01.849Z,24.13
2017-08-04T04:19:32.993Z,24.16
2017-08-04T04:22:05.741Z,24.16
2017-08-04T04:24:36.865Z,24.13
2017-08-04T04:27:08.242Z,24.04
2017-08-04T04:29:39.347Z,24.06
2017-08-04T04:32:12.495Z,24.06
2017-08-04T04:34:43.560Z,24.04
2017-08-04T04:37:15.080Z,24.04
2017-08-04T04:39:46.203Z,24.03
2017-08-04T04:42:17.380Z,24.07
2017-08-04T04:44:48.752Z,24.04
2017-08-04T04:47:19.830Z,24.02
2017-08-04T04:49:50.935Z,24.07
2017-08-04T04:52:22.348Z,24.04
2017-08-04T04:54:53.909Z,24.00
2017-08-04T04:57:25.049Z,24.05
2017-08-04T04:59:56.142Z,24.03
2017-08-04T05:02:27.681Z,24.09
2017-08-04T05:04:58.776Z,24.09
2017-08-04T05:07:29.877Z,24.06
2017-08-04T05:10:01.350Z,24.08
2017-08-04T05:12:32.440Z,24.02
2017-08-04T05:15:03.612Z,23.98
2017-08-04T05:17:35.147Z,23.95
2017-08-04T05:20:06.879Z,23.93
2017-08-04T05:22:37.991Z,24.05
2017-08-04T05:25:09.056Z,23.96
2017-08-04T05:27:40.559Z,23.99
2017-08-04T05:30:12.458Z,24.11
2017-08-04T05:32:43.914Z,24.21
2017-08-04T05:35:15.022Z,24.24
2017-08-04T05:37:46.132Z,24.13
2017-08-04T05:40:18.474Z,24.13
2017-08-04T05:42:49.657Z,24.19
2017-08-04T05:45:20.741Z,24.34
2017-08-04T05:47:52.051Z,24.52
2017-08-04T05:50:23.105Z,24.45
2017-08-04T05:52:54.423Z,24.41
2017-08-04T05:55:25.454Z,24.43
2017-08-04T05:57:57.014Z,24.55
2017-08-04T06:00:28.385Z,24.55
2017-08-04T06:02:59.555Z,24.66
2017-08-04T06:05:30.538Z,24.81
2017-08-04T06:08:03.757Z,24.75
2017-08-04T06:10:34.786Z,24.76
2017-08-04T06:13:06.087Z,24.69
2017-08-04T06:15:37.129Z,24.70
2017-08-04T06:18:08.739Z,24.74
2017-08-04T06:20:40.172Z,24.84
2017-08-04T06:23:11.205Z,24.66
2017-08-04T06:25:43.214Z,24.64
2017-08-04T06:28:14.766Z,24.75
2017-08-04T06:30:45.802Z,24.74
2017-08-04T06:33:16.800Z,24.81
2017-08-04T06:35:48.154Z,24.88
2017-08-04T06:38:19.275Z,25.01
2017-08-04T06:40:50.550Z,25.02
2017-08-04T06:43:21.552Z,24.77
2017-08-04T06:45:52.574Z,25.06
2017-08-04T06:48:32.635Z,25.17
2017-08-04T06:55:18.857Z,25.11
2017-08-04T06:57:49.849Z,25.03
2017-08-04T07:00:20.986Z,24.89
2017-08-04T07:02:52.495Z,25.01
2017-08-04T07:05:23.550Z,24.94
2017-08-04T07:07:54.568Z,25.22
2017-08-04T07:10:25.915Z,25.25
2017-08-04T07:12:56.903Z,25.17
2017-08-04T07:15:27.915Z,25.06
2017-08-04T07:17:59.328Z,25.22
2017-08-04T07:20:30.343Z,25.27
2017-08-04T07:23:01.342Z,25.41
2017-08-04T07:25:32.746Z,25.45
2017-08-04T07:28:04.700Z,25.23
2017-08-04T07:30:36.178Z,25.11
2017-08-04T07:33:07.220Z,25.29
2017-08-04T07:35:38.265Z,24.99
2017-08-04T07:38:09.871Z,24.71
2017-08-04T07:40:40.909Z,25.01
2017-08-04T07:43:11.922Z,24.98
2017-08-04T07:45:43.338Z,24.87
2017-08-04T07:48:14.988Z,24.85
2017-08-04T07:50:46.240Z,24.82
2017-08-04T07:53:17.251Z,24.88
2017-08-04T07:55:48.267Z,24.83
2017-08-04T07:58:20.442Z,25.18
2017-08-04T08:00:51.636Z,25.38
2017-08-04T08:03:23.076Z,25.41
2017-08-04T08:05:54.657Z,25.33
2017-08-04T08:08:25.692Z,25.40
2017-08-04T08:10:56.817Z,25.55
2017-08-04T08:13:27.875Z,25.27
2017-08-04T08:15:59.195Z,25.22
2017-08-04T08:18:30.235Z,25.17
2017-08-04T08:21:01.555Z,25.01
2017-08-04T08:23:33.041Z,24.96
2017-08-04T08:26:04.709Z,24.81
2017-08-04T08:28:35.880Z,24.84
2017-08-04T08:31:07.328Z,24.73
2017-08-04T08:33:38.461Z,24.68
2017-08-04T08:36:11.098Z,24.50
2017-08-04T08:38:42.232Z,24.43
2017-08-04T08:41:13.428Z,24.52
2017-08-04T08:43:44.891Z,24.59
2017-08-04T08:46:16.942Z,24.80
2017-08-04T08:51:16.161Z,24.69
2017-08-04T08:53:47.338Z,24.91
2017-08-04T08:56:18.965Z,24.97
2017-08-04T08:58:50.330Z,25.01
2017-08-04T09:01:21.400Z,24.88
2017-08-04T09:03:52.479Z,24.89
2017-08-04T09:06:23.573Z,25.04
2017-08-04T09:08:54.629Z,25.00
2017-08-04T09:11:25.790Z,24.98
2017-08-04T09:13:56.875Z,25.31
2017-08-04T09:16:28.335Z,25.39
2017-08-04T09:18:59.384Z,25.37
2017-08-04T09:21:30.443Z,25.42
2017-08-04T09:24:02.681Z,25.51
2017-08-04T09:26:33.742Z,25.51
2017-08-04T09:29:04.854Z,25.47
2017-08-04T09:31:35.980Z,25.71
2017-08-04T09:34:07.162Z,25.63
2017-08-04T09:36:38.234Z,25.43
2017-08-04T09:39:09.293Z,25.60
2017-08-04T09:41:40.780Z,25.77
2017-08-04T09:44:12.614Z,26.03
2017-08-04T09:46:44.480Z,25.91
2017-08-04T09:49:15.591Z,25.84
2017-08-04T09:51:46.939Z,25.84
2017-08-04T09:54:21.408Z,26.02
2017-08-04T09:56:54.022Z,25.94
2017-08-04T09:59:25.526Z,26.05
2017-08-04T10:01:56.622Z,25.89
2017-08-04T10:04:27.679Z,25.88
2017-08-04T10:06:58.828Z,26.00
2017-08-04T10:09:29.922Z,26.05
2017-08-04T10:12:01.522Z,26.20
2017-08-04T10:14:32.734Z,26.03
2017-08-04T10:17:03.997Z,26.05
2017-08-04T10:19:35.093Z,26.41
2017-08-04T10:22:08.824Z,26.58
2017-08-04T10:24:39.862Z,26.94
2017-08-04T10:27:11.310Z,27.11
2017-08-04T10:29:42.431Z,27.63
2017-08-04T10:32:14.473Z,27.77
2017-08-04T10:34:45.528Z,27.77
2017-08-04T10:37:16.610Z,27.96
2017-08-04T10:39:47.704Z,28.27
2017-08-04T10:42:22.103Z,28.36
2017-08-04T10:44:53.119Z,28.70
2017-08-04T10:47:24.188Z,28.96
2017-08-04T10:49:55.381Z,29.20
2017-08-04T10:52:26.540Z,29.32
2017-08-04T10:54:58.390Z,29.42
2017-08-04T10:57:29.770Z,29.27
2017-08-04T11:00:00.875Z,29.05
2017-08-04T11:02:32.190Z,28.91
2017-08-04T11:05:04.405Z,28.70
2017-08-04T11:07:35.640Z,29.17
2017-08-04T11:10:08.401Z,29.47
2017-08-04T11:12:39.737Z,29.64
2017-08-04T11:15:11.602Z,29.93
2017-08-04T11:17:42.728Z,29.97
2017-08-04T11:20:13.919Z,30.05
2017-08-04T11:22:44.921Z,30.10
2017-08-04T11:25:16.077Z,29.90
2017-08-04T11:27:47.660Z,29.85
2017-08-04T11:30:20.917Z,29.70
2017-08-04T11:32:51.942Z,29.75
2017-08-04T11:35:23.313Z,29.93
2017-08-04T11:37:54.385Z,29.60
2017-08-04T11:40:25.484Z,29.56
2017-08-04T11:42:56.841Z,29.48
2017-08-04T11:45:28.829Z,30.07
2017-08-04T11:47:59.950Z,30.80
2017-08-04T11:50:31.514Z,31.47
2017-08-04T11:53:02.605Z,31.89
2017-08-04T11:55:33.665Z,31.28
2017-08-04T11:58:08.813Z,30.75
2017-08-04T12:00:40.545Z,30.49
2017-08-04T12:03:11.821Z,30.38
2017-08-04T12:05:42.885Z,31.15
2017-08-04T12:08:16.159Z,31.06
2017-08-04T12:10:47.158Z,31.32
2017-08-04T12:13:18.958Z,30.65
2017-08-04T12:15:49.931Z,30.54
2017-08-04T12:18:21.058Z,31.00
2017-08-04T12:20:52.500Z,31.62
2017-08-04T12:23:24.172Z,31.77
2017-08-04T12:25:55.233Z,32.08
2017-08-04T12:28:26.736Z,32.52
2017-08-04T12:30:57.982Z,32.66
2017-08-04T12:33:29.165Z,31.95
2017-08-04T12:36:00.325Z,31.78
2017-08-04T12:38:31.395Z,32.12
2017-08-04T12:41:03.343Z,32.52
2017-08-04T12:43:34.760Z,33.10
2017-08-04T12:46:07.638Z,33.80
2017-08-04T12:48:38.770Z,33.56
2017-08-04T12:51:09.856Z,33.41
2017-08-04T12:53:41.737Z,33.71
2017-08-04T12:56:13.860Z,33.82
2017-08-04T12:58:45.447Z,34.36
2017-08-04T13:01:16.776Z,34.75
2017-08-04T13:03:48.833Z,35.10
2017-08-04T13:06:24.011Z,35.08
2017-08-04T13:08:55.193Z,35.07
2017-08-04T13:11:26.339Z,34.97
2017-08-04T13:13:57.667Z,35.11
2017-08-04T13:16:28.656Z,34.75
2017-08-04T13:19:00.361Z,34.41
2017-08-04T13:21:31.426Z,33.91
2017-08-04T13:24:05.161Z,34.71
2017-08-04T13:26:36.446Z,34.29
2017-08-04T13:29:13.482Z,35.43
2017-08-04T13:34:40.543Z,38.02
2017-08-04T13:37:11.804Z,38.77
2017-08-04T13:39:42.847Z,38.97
2017-08-04T13:42:16.840Z,38.04
2017-08-04T13:44:48.355Z,36.16
2017-08-04T13:47:19.986Z,35.97
2017-08-04T13:49:51.368Z,36.70
2017-08-04T13:52:22.656Z,38.03
2017-08-04T13:54:56.346Z,38.58
2017-08-04T13:57:29.529Z,37.82
2017-08-04T14:00:01.226Z,37.43
2017-08-04T14:02:33.108Z,39.34
2017-08-04T14:05:24.263Z,42.37
2017-08-04T14:08:05.171Z,42.89
2017-08-04T14:10:41.971Z,42.52
2017-08-04T14:13:18.064Z,40.51
2017-08-04T14:15:56.808Z,39.17
2017-08-04T14:21:16.546Z,38.18
2017-08-04T14:23:52.717Z,39.94
2017-08-04T14:26:30.053Z,40.17
2017-08-04T14:29:08.719Z,39.49
2017-08-04T14:31:45.866Z,39.67
2017-08-04T14:34:23.709Z,40.44
2017-08-04T14:36:55.317Z,39.67
2017-08-04T14:39:26.571Z,38.84
2017-08-04T14:41:58.322Z,38.06
2017-08-04T14:44:29.588Z,37.89
2017-08-04T14:47:00.856Z,37.61
2017-08-04T14:49:31.985Z,36.76
2017-08-04T14:52:03.791Z,38.42
2017-08-04T14:54:35.195Z,41.45
2017-08-04T14:57:06.428Z,44.80
2017-08-04T14:59:37.544Z,47.45
2017-08-04T15:02:09.052Z,49.51
2017-08-04T15:04:40.289Z,50.67
2017-08-04T15:07:11.479Z,50.08
2017-08-04T15:09:43.014Z,49.92
2017-08-04T15:12:14.282Z,48.96
2017-08-04T15:14:45.733Z,48.87
2017-08-04T15:17:16.885Z,46.70
2017-08-04T15:19:48.035Z,45.67
2017-08-04T15:22:19.404Z,46.33
2017-08-04T15:24:50.469Z,47.83
2017-08-04T15:27:21.597Z,48.51
2017-08-04T15:29:53.049Z,48.64
2017-08-04T15:32:24.187Z,45.62
2017-08-04T15:34:55.417Z,45.37
2017-08-04T15:37:26.908Z,44.26
2017-08-04T15:39:58.072Z,45.06
2017-08-04T15:42:29.235Z,44.23
2017-08-04T15:45:00.675Z,44.23
2017-08-04T15:47:31.761Z,44.79
2017-08-04T15:50:03.220Z,45.71
2017-08-04T15:52:34.573Z,45.59
2017-08-04T15:55:05.931Z,44.61
2017-08-04T15:57:39.323Z,43.33
2017-08-04T16:00:13.359Z,43.01
2017-08-04T16:02:47.229Z,41.37
2017-08-04T16:05:22.708Z,38.97
2017-08-04T16:10:47.837Z,37.23
2017-08-04T16:13:25.200Z,39.44
2017-08-04T16:16:09.474Z,40.40
2017-08-04T16:21:18.016Z,40.24
2017-08-04T16:23:49.148Z,39.09
2017-08-04T16:26:20.891Z,40.31
2017-08-04T16:28:53.424Z,40.55
2017-08-04T16:31:25.166Z,38.53
2017-08-04T16:33:59.933Z,38.30
2017-08-04T16:36:32.357Z,38.03
2017-08-04T16:39:08.122Z,39.42
2017-08-04T16:41:39.808Z,38.41
2017-08-04T16:44:15.194Z,37.83
2017-08-04T16:46:46.728Z,37.45
2017-08-04T16:49:18.622Z,35.86
2017-08-04T16:51:52.588Z,36.11
2017-08-04T16:54:25.864Z,36.88
2017-08-04T16:56:58.271Z,36.29
2017-08-04T16:59:29.979Z,34.73
2017-08-04T17:02:14.029Z,33.75
2017-08-04T17:04:46.900Z,32.44
2017-08-04T17:07:18.262Z,32.82
2017-08-04T17:09:50.219Z,33.00
2017-08-04T17:12:21.669Z,32.56
2017-08-04T17:14:52.830Z,32.36
2017-08-04T17:17:23.964Z,32.44
2017-08-04T17:19:56.993Z,32.29
2017-08-04T17:22:28.491Z,31.89
2017-08-04T17:25:00.702Z,31.34
2017-08-04T17:27:31.857Z,31.32
2017-08-04T17:30:05.201Z,31.14
2017-08-04T17:32:36.352Z,30.64
2017-08-04T17:35:07.544Z,29.85
2017-08-04T17:37:39.835Z,29.74
2017-08-04T17:40:14.373Z,29.37
2017-08-04T17:42:45.780Z,29.20
2017-08-04T17:45:16.851Z,29.05
2017-08-04T17:47:47.964Z,28.68
2017-08-04T17:50:21.044Z,28.55
2017-08-04T17:52:52.474Z,28.39
2017-08-04T17:55:25.113Z,28.35
2017-08-04T17:57:56.235Z,28.45
2017-08-04T18:00:27.341Z,28.31
2017-08-04T18:03:07.826Z,28.03
2017-08-04T18:05:38.999Z,27.65
2017-08-04T18:08:11.656Z,27.62
2017-08-04T18:10:45.283Z,27.66
2017-08-04T18:13:20.720Z,27.41
2017-08-04T18:15:54.065Z,27.35
2017-08-04T18:18:26.938Z,27.33
2017-08-04T18:21:00.572Z,27.19
2017-08-04T18:23:37.825Z,27.10
2017-08-04T18:26:11.013Z,26.98
2017-08-04T18:28:42.240Z,26.72
2017-08-04T18:31:14.991Z,26.69
2017-08-04T18:33:50.794Z,26.75
2017-08-04T18:36:29.777Z,26.74
2017-08-04T18:39:02.434Z,26.74
2017-08-04T18:41:38.250Z,26.61
2017-08-04T18:44:13.213Z,26.61
2017-08-04T18:46:45.565Z,26.67
2017-08-04T18:49:17.626Z,26.67
2017-08-04T18:51:49.530Z,26.62
2017-08-04T18:54:26.273Z,26.57
2017-08-04T18:56:58.077Z,26.48
2017-08-04T18:59:31.485Z,26.47
2017-08-04T19:02:14.735Z,26.42
2017-08-04T19:04:45.897Z,26.31
2017-08-04T19:07:17.282Z,26.14
2017-08-04T19:09:48.871Z,26.15
2017-08-04T19:12:20.655Z,26.07
2017-08-04T19:14:54.013Z,26.11
2017-08-04T19:17:29.713Z,26.01
2017-08-04T19:20:03.485Z,25.95
2017-08-04T19:22:36.225Z,25.91
2017-08-04T19:25:09.631Z,25.95
2017-08-04T19:27:41.677Z,25.92
2017-08-04T19:30:16.470Z,25.91
2017-08-04T19:32:47.624Z,25.91
2017-08-04T19:35:25.204Z,25.89
2017-08-04T19:38:06.703Z,25.74
2017-08-04T19:40:38.243Z,25.72
2017-08-04T19:43:09.391Z,25.75
2017-08-04T19:45:41.613Z,25.73
2017-08-04T19:48:16.933Z,25.69
2017-08-04T19:50:48.072Z,25.63
2017-08-04T19:53:19.770Z,25.54
2017-08-04T19:58:46.650Z,25.47
2017-08-04T20:01:18.289Z,25.45
2017-08-04T20:03:49.381Z,25.43
2017-08-04T20:06:21.787Z,25.41
2017-08-04T20:08:56.730Z,25.42
2017-08-04T20:11:29.192Z,25.43
2017-08-04T20:14:03.609Z,25.43
2017-08-04T20:16:35.065Z,25.53
2017-08-04T20:19:08.465Z,25.61
2017-08-04T20:21:39.818Z,25.59
2017-08-04T20:24:16.488Z,25.63
2017-08-04T20:26:50.906Z,25.66
2017-08-04T20:29:24.630Z,25.62
2017-08-04T20:31:57.510Z,25.58
2017-08-04T20:34:29.152Z,25.59
2017-08-04T20:37:04.228Z,25.55
2017-08-04T20:39:37.016Z,25.51
2017-08-04T20:42:09.153Z,25.51
2017-08-04T20:44:40.362Z,25.47
2017-08-04T20:47:14.913Z,25.45
2017-08-04T20:49:46.843Z,25.36
2017-08-04T20:52:19.064Z,25.36
2017-08-04T20:54:52.129Z,25.32
2017-08-04T20:57:23.647Z,25.33
2017-08-04T20:59:56.448Z,25.27
2017-08-04T21:02:30.201Z,25.16
2017-08-04T21:05:04.919Z,25.08
2017-08-04T21:07:39.647Z,24.92
2017-08-04T21:10:14.167Z,24.85
2017-08-04T21:12:45.417Z,24.72
2017-08-04T21:15:16.524Z,24.68
2017-08-04T21:17:49.257Z,24.67
2017-08-04T21:23:15.533Z,24.71
2017-08-04T21:25:47.009Z,24.73
2017-08-04T21:28:19.164Z,24.73
2017-08-04T21:30:50.467Z,24.74
2017-08-04T21:33:21.600Z,24.69
2017-08-04T21:35:52.750Z,24.65
2017-08-04T21:38:24.055Z,24.66
2017-08-04T21:40:55.270Z,24.46
2017-08-04T21:43:26.548Z,24.38
2017-08-04T21:45:58.101Z,24.40
2017-08-04T21:48:29.222Z,24.40
2017-08-04T21:51:00.262Z,24.37
2017-08-04T21:53:31.859Z,24.33
2017-08-04T21:56:03.119Z,24.24
2017-08-04T21:58:35.551Z,24.19
2017-08-04T22:01:06.686Z,24.16
2017-08-04T22:06:12.429Z,24.11
2017-08-04T22:08:44.521Z,24.07
2017-08-04T22:11:15.879Z,24.07
2017-08-04T22:13:46.975Z,24.02
2017-08-04T22:16:18.654Z,24.01
2017-08-04T22:18:49.672Z,23.97
2017-08-04T22:21:20.702Z,23.93
2017-08-04T22:23:51.995Z,23.91
2017-08-04T22:26:23.003Z,23.87
2017-08-04T22:28:54.009Z,23.76
2017-08-04T22:31:25.337Z,23.70
2017-08-04T22:33:56.392Z,23.66
2017-08-04T22:36:27.429Z,23.61
2017-08-04T22:38:58.707Z,23.57
2017-08-04T22:41:29.734Z,23.52
2017-08-04T22:44:00.986Z,23.49
2017-08-04T22:46:32.030Z,23.45
2017-08-04T22:49:03.344Z,23.43
2017-08-04T22:51:34.646Z,23.37
2017-08-04T22:54:10.235Z,23.36
2017-08-04T22:56:41.934Z,23.35
2017-08-04T22:59:17.484Z,23.32
2017-08-04T23:01:50.299Z,23.31
2017-08-04T23:04:22.204Z,23.29
2017-08-04T23:06:53.333Z,23.27
2017-08-04T23:09:27.801Z,23.25
2017-08-04T23:12:00.482Z,23.24
2017-08-04T23:14:33.776Z,23.24
2017-08-04T23:22:45.975Z,23.18
2017-08-04T23:26:46.067Z,23.13
2017-08-04T23:29:17.785Z,23.13
2017-08-04T23:31:51.045Z,23.13
2017-08-04T23:34:22.180Z,23.13
2017-08-04T23:36:55.659Z,23.11
2017-08-04T23:39:27.677Z,22.99
2017-08-04T23:41:59.437Z,22.95
2017-08-04T23:50:17.219Z,23.00
2017-08-04T23:52:48.262Z,22.99
2017-08-04T23:55:21.351Z,22.96
2017-08-04T23:57:52.670Z,22.95
